Gwinner, ND

10:48 PM CDT on May 24, 2017 (GMT -0500)
Gwinner-melroe

Weather History for KGWR - March, 2014

Change the Weather History Date:

Sunday, March 2, 2014

  Actual Average (KP67) Record (KP67)
Temperature  
Mean Temperature 0 °F -  
Max Temperature 10 °F 24 °F 28 °F (1998)
Min Temperature -9 °F 7 °F 0 °F (1997)
Degree Days  
Heating Degree Days 64    
Moisture  
Dew Point -14 °F    
Average Humidity 53    
Maximum Humidity 66    
Minimum Humidity 43    
Precipitation  
Precipitation 0.00 in - - ()
Sea Level Pressure  
Sea Level Pressure 30.53 in    
Wind  
Wind Speed 12 mph (WNW)    
Max Wind Speed 18 mph    
Max Gust Speed 25 mph    
Visibility 10 miles    
Events      
Averages and records for this station are not official NWS values.
T = Trace of Precipitation, MM = Missing Value Source: NWS Daily Summary

Daily Weather History Graph

Daily Weather History Graph

Search for Another Location

Airport or City:

Trip Planner

Search our weather history database for the weather conditions in past years. The results will help you decide how hot, cold, wet, or windy it might be!

Date:

Astronomy

Mar. 02, 2014 Rise Set
Actual Time 7:07 AM CST 6:18 PM CST
Civil Twilight 6:37 AM CST 6:48 PM CST
Nautical Twilight 6:02 AM CST 7:23 PM CST
Astronomical Twilight 5:28 AM CST 7:58 PM CST
Moon 7:32 AM CST (3/2) 8:24 PM CST (3/2)
Length of Visible Light 12h 10m
Length of Day
11h 10m
Waxing Crescent, 3% of the Moon is Illuminated
Mar 2
Waxing Crescent
Mar 8
First Quarter
Mar 16
Full
Mar 23
Last Quarter
Mar 30
New

Hourly Weather History & Observations

Time (CST) Temp. Windchill Dew Point Humidity Pressure Visibility Wind Dir Wind Speed Gust Speed Precip Events Conditions
12:15 AM -7.6 °F -24.6 °F -18.4 °F 59% 30.56 in 10.0 mi West 9.2 mph - 0.00 in   Clear
12:35 AM -7.6 °F -24.6 °F -18.4 °F 59% 30.55 in 10.0 mi WNW 9.2 mph - 0.00 in   Clear
12:55 AM -5.8 °F -26.0 °F -18.4 °F 55% 30.55 in 10.0 mi WNW 13.8 mph - 0.00 in   Clear
1:15 AM -5.8 °F -26.8 °F -18.4 °F 55% 30.54 in 10.0 mi WNW 15.0 mph - 0.00 in   Clear
1:35 AM -5.8 °F -25.2 °F -20.2 °F 50% 30.55 in 10.0 mi WNW 12.7 mph - 0.00 in   Scattered Clouds
1:55 AM -5.8 °F -26.0 °F -20.2 °F 50% 30.55 in 10.0 mi WNW 13.8 mph 18.4 mph 0.00 in   Overcast
2:15 AM -5.8 °F -25.2 °F -20.2 °F 50% 30.56 in 10.0 mi WNW 12.7 mph - 0.00 in   Overcast
2:35 AM -5.8 °F -26.0 °F -18.4 °F 55% 30.56 in 10.0 mi WNW 13.8 mph - 0.00 in   Overcast
2:55 AM -5.8 °F -25.2 °F -18.4 °F 55% 30.56 in 10.0 mi WNW 12.7 mph - 0.00 in   Overcast
3:15 AM -7.6 °F -28.3 °F -18.4 °F 59% 30.54 in 10.0 mi WNW 13.8 mph - 0.00 in   Mostly Cloudy
3:35 AM -7.6 °F -27.5 °F -20.2 °F 54% 30.54 in 10.0 mi WNW 12.7 mph - 0.00 in   Clear
3:55 AM -7.6 °F -28.3 °F -20.2 °F 54% 30.53 in 10.0 mi WNW 13.8 mph 18.4 mph 0.00 in   Clear
4:15 AM -7.6 °F -27.5 °F -22.0 °F 50% 30.53 in 10.0 mi WNW 12.7 mph - 0.00 in   Clear
4:35 AM -9.4 °F -28.9 °F -22.0 °F 54% 30.53 in 10.0 mi WNW 11.5 mph - 0.00 in   Clear
4:55 AM -9.4 °F -29.8 °F -22.0 °F 54% 30.53 in 10.0 mi WNW 12.7 mph - 0.00 in   Clear
5:15 AM -9.4 °F -29.8 °F -22.0 °F 54% 30.53 in 10.0 mi WNW 12.7 mph - 0.00 in   Clear
5:35 AM -9.4 °F -31.4 °F -22.0 °F 54% 30.53 in 10.0 mi WNW 15.0 mph - 0.00 in   Clear
5:55 AM -9.4 °F -29.8 °F -22.0 °F 54% 30.54 in 10.0 mi West 12.7 mph - 0.00 in   Clear
6:15 AM -9.4 °F -29.8 °F -22.0 °F 54% 30.54 in 10.0 mi West 12.7 mph - 0.00 in   Clear
6:35 AM -9.4 °F -28.9 °F -22.0 °F 54% 30.54 in 10.0 mi West 11.5 mph - 0.00 in   Clear
6:55 AM - - - N/A% 30.54 in 10.0 mi West 11.5 mph - 0.00 in   Clear
7:15 AM -9.4 °F -27.9 °F -22.0 °F 54% 30.54 in 10.0 mi West 10.4 mph - 0.00 in   Clear
7:35 AM - - - N/A% 30.54 in 10.0 mi West 9.2 mph - 0.00 in   Clear
7:55 AM -9.4 °F -27.9 °F -22.0 °F 54% 30.54 in 10.0 mi West 10.4 mph - 0.00 in   Clear
8:15 AM -9.4 °F -28.9 °F -22.0 °F 54% 30.54 in 10.0 mi West 11.5 mph - 0.00 in   Clear
8:35 AM -7.6 °F -29.8 °F -22.0 °F 50% 30.54 in 10.0 mi West 16.1 mph 20.7 mph 0.00 in   Clear
8:55 AM -7.6 °F -29.1 °F -22.0 °F 50% 30.55 in 10.0 mi West 15.0 mph - 0.00 in   Clear
9:15 AM -7.6 °F -29.1 °F -20.2 °F 54% 30.55 in 10.0 mi WNW 15.0 mph - 0.00 in   Clear
9:35 AM -5.8 °F -27.5 °F -20.2 °F 50% 30.56 in 10.0 mi WNW 16.1 mph - 0.00 in   Clear
9:55 AM -5.8 °F -28.2 °F -18.4 °F 55% 30.55 in 10.0 mi West 17.3 mph - 0.00 in   Clear
10:15 AM -4.0 °F -26.4 °F -18.4 °F 50% 30.54 in 10.0 mi WNW 18.4 mph - 0.00 in   Clear
10:35 AM -2.2 °F -22.2 °F -16.6 °F 50% 30.54 in 10.0 mi West 15.0 mph 20.7 mph 0.00 in   Clear
10:55 AM -0.4 °F -21.2 °F -14.8 °F 51% 30.53 in 10.0 mi WNW 17.3 mph - 0.00 in   Clear
11:15 AM 1.4 °F -18.2 °F -14.8 °F 47% 30.54 in 10.0 mi WNW 16.1 mph 21.9 mph 0.00 in   Clear
11:35 AM 3.2 °F -15.3 °F -14.8 °F 43% 30.53 in 10.0 mi WNW 15.0 mph 21.9 mph 0.00 in   Clear
11:55 AM 3.2 °F -16.5 °F -13.0 °F 47% 30.54 in 10.0 mi NW 17.3 mph - 0.00 in   Clear
12:15 PM 5.0 °F -14.2 °F -11.2 °F 47% 30.54 in 10.0 mi NW 17.3 mph 25.3 mph 0.00 in   Clear
12:35 PM 5.0 °F -12.3 °F -11.2 °F 47% 30.54 in 10.0 mi NW 13.8 mph 19.6 mph 0.00 in   Clear
12:55 PM 5.0 °F -13.6 °F -9.4 °F 52% 30.54 in 10.0 mi NW 16.1 mph 20.7 mph 0.00 in   Clear
1:15 PM 6.8 °F -10.0 °F -9.4 °F 48% 30.53 in 10.0 mi WNW 13.8 mph - 0.00 in   Clear
1:35 PM 8.6 °F -7.0 °F -9.4 °F 44% 30.53 in 10.0 mi WNW 12.7 mph - 0.00 in   Clear
1:55 PM 8.6 °F -8.3 °F -7.6 °F 48% 30.52 in 10.0 mi NW 15.0 mph 18.4 mph 0.00 in   Clear
2:15 PM 8.6 °F -8.3 °F -7.6 °F 48% 30.51 in 10.0 mi NW 15.0 mph - 0.00 in   Clear
2:35 PM 8.6 °F -8.3 °F -7.6 °F 48% 30.51 in 10.0 mi NW 15.0 mph 18.4 mph 0.00 in   Clear
2:55 PM 8.6 °F -6.3 °F -7.6 °F 48% 30.51 in 10.0 mi WNW 11.5 mph 19.6 mph 0.00 in   Clear
3:15 PM 10.4 °F -4.8 °F -5.8 °F 48% 30.51 in 10.0 mi NW 12.7 mph 18.4 mph 0.00 in   Clear
3:35 PM 8.6 °F -7.0 °F -7.6 °F 48% 30.51 in 10.0 mi WNW 12.7 mph - 0.00 in   Clear
3:55 PM 10.4 °F -4.1 °F -7.6 °F 44% 30.52 in 10.0 mi NW 11.5 mph - 0.00 in   Clear
4:15 PM 10.4 °F -4.1 °F -7.6 °F 44% 30.52 in 10.0 mi NW 11.5 mph - 0.00 in   Clear
4:35 PM 8.6 °F -7.0 °F -7.6 °F 48% 30.51 in 10.0 mi WNW 12.7 mph - 0.00 in   Clear
4:55 PM 8.6 °F -6.3 °F -7.6 °F 48% 30.50 in 10.0 mi WNW 11.5 mph - 0.00 in   Clear
5:15 PM 8.6 °F -5.5 °F -7.6 °F 48% 30.49 in 10.0 mi NNW 10.4 mph - 0.00 in   Clear
5:35 PM 8.6 °F -4.7 °F -7.6 °F 48% 30.49 in 10.0 mi NW 9.2 mph - 0.00 in   Clear
5:55 PM 8.6 °F -5.5 °F -7.6 °F 48% 30.49 in 10.0 mi NW 10.4 mph - 0.00 in   Clear
6:15 PM 6.8 °F -5.9 °F -7.6 °F 52% 30.50 in 10.0 mi NW 8.1 mph - 0.00 in   Clear
6:35 PM 5.0 °F -8.1 °F -7.6 °F 56% 30.49 in 10.0 mi NW 8.1 mph - 0.00 in   Clear
6:55 PM 5.0 °F -5.6 °F -7.6 °F 56% 30.49 in 10.0 mi NW 5.8 mph - 0.00 in   Clear
7:15 PM 3.2 °F -7.8 °F -7.6 °F 61% 30.50 in 10.0 mi NNW 5.8 mph - 0.00 in   Clear
7:35 PM 3.2 °F -7.8 °F -7.6 °F 61% 30.51 in 10.0 mi NW 5.8 mph - 0.00 in   Clear
7:55 PM 3.2 °F -4.2 °F -7.6 °F 61% 30.50 in 10.0 mi NNW 3.5 mph - 0.00 in   Clear
8:15 PM 3.2 °F -6.2 °F -7.6 °F 61% 30.50 in 10.0 mi NNW 4.6 mph - 0.00 in   Clear
8:35 PM 1.4 °F -8.3 °F -7.6 °F 66% 30.50 in 10.0 mi NW 4.6 mph - 0.00 in   Clear
8:55 PM 3.2 °F -9.1 °F -7.6 °F 61% 30.50 in 10.0 mi NW 6.9 mph - 0.00 in   Partly Cloudy
9:15 PM 3.2 °F -7.8 °F -7.6 °F 61% 30.50 in 10.0 mi WNW 5.8 mph - 0.00 in   Scattered Clouds
9:35 PM 3.2 °F -6.2 °F -7.6 °F 61% 30.50 in 10.0 mi West 4.6 mph - 0.00 in   Mostly Cloudy
9:55 PM 3.2 °F -7.8 °F -7.6 °F 61% 30.50 in 10.0 mi WNW 5.8 mph - 0.00 in   Overcast
10:15 PM 3.2 °F -7.8 °F -7.6 °F 61% 30.50 in 10.0 mi WNW 5.8 mph - 0.00 in   Scattered Clouds
10:35 PM 3.2 °F -7.8 °F -7.6 °F 61% 30.50 in 10.0 mi WNW 5.8 mph - 0.00 in   Clear
10:55 PM 1.4 °F -9.9 °F -9.4 °F 61% 30.49 in 10.0 mi WNW 5.8 mph - 0.00 in   Clear